createdAt,value
2023-06-30T00:00:28.014Z,94816.00
2023-06-30T00:01:28.034Z,94820.00
2023-06-30T00:02:28.134Z,94818.00
2023-06-30T00:03:28.277Z,94818.00
2023-06-30T00:04:28.374Z,94820.00
2023-06-30T00:05:28.202Z,94818.00
2023-06-30T00:06:28.254Z,94818.00
2023-06-30T00:07:28.289Z,94814.00
2023-06-30T00:08:28.310Z,94810.00
2023-06-30T00:09:28.369Z,94808.00
2023-06-30T00:10:28.592Z,94806.00
2023-06-30T00:11:28.441Z,94806.00
2023-06-30T00:12:28.476Z,94802.00
2023-06-30T00:13:28.546Z,94800.00
2023-06-30T00:14:28.588Z,94800.00
2023-06-30T00:15:28.694Z,94802.00
2023-06-30T00:16:28.728Z,94800.00
2023-06-30T00:17:28.766Z,94798.00
2023-06-30T00:18:28.745Z,94793.00
2023-06-30T00:19:28.831Z,94789.00
2023-06-30T00:20:28.834Z,94791.00
2023-06-30T00:21:28.835Z,94789.00
2023-06-30T00:22:28.962Z,94785.00
2023-06-30T00:23:28.951Z,94785.00
2023-06-30T00:24:29.040Z,94787.00
2023-06-30T00:25:29.058Z,94787.00
2023-06-30T00:26:29.103Z,94789.00
2023-06-30T00:27:29.116Z,94789.00
2023-06-30T00:28:29.180Z,94793.00
2023-06-30T00:29:29.214Z,94793.00
2023-06-30T00:30:29.307Z,94793.00
2023-06-30T00:31:29.367Z,94793.00
2023-06-30T00:32:29.348Z,94791.00
2023-06-30T00:33:29.424Z,94793.00
2023-06-30T00:34:29.466Z,94787.00
2023-06-30T00:35:29.532Z,94789.00
2023-06-30T00:36:29.549Z,94787.00
2023-06-30T00:37:29.568Z,94785.00
2023-06-30T00:38:29.629Z,94785.00
2023-06-30T00:39:29.678Z,94783.00
2023-06-30T00:40:29.718Z,94783.00
2023-06-30T00:41:29.777Z,94779.00
2023-06-30T00:42:29.843Z,94775.00
2023-06-30T00:43:29.855Z,94773.00
2023-06-30T00:44:29.877Z,94773.00
2023-06-30T00:45:29.934Z,94771.00
2023-06-30T00:46:30.021Z,94773.00
2023-06-30T00:47:30.046Z,94773.00
2023-06-30T00:48:30.095Z,94769.00
2023-06-30T00:49:30.095Z,94771.00
2023-06-30T00:50:30.149Z,94771.00
2023-06-30T00:51:30.176Z,94771.00
2023-06-30T00:52:30.239Z,94771.00
2023-06-30T00:53:30.293Z,94771.00
2023-06-30T00:54:30.347Z,94769.00
2023-06-30T00:55:30.364Z,94767.00
2023-06-30T00:56:30.420Z,94767.00
2023-06-30T00:57:30.467Z,94765.00
2023-06-30T00:58:30.520Z,94765.00
2023-06-30T00:59:30.559Z,94767.00
2023-06-30T01:00:30.591Z,94767.00
2023-06-30T01:01:30.658Z,94765.00
2023-06-30T01:02:30.756Z,94767.00
2023-06-30T01:03:30.855Z,94765.00
2023-06-30T01:04:30.935Z,94763.00
2023-06-30T01:05:30.839Z,94767.00
2023-06-30T01:06:30.871Z,94763.00
2023-06-30T01:07:31.014Z,94763.00
2023-06-30T01:08:30.964Z,94763.00
2023-06-30T01:09:31.018Z,94761.00
2023-06-30T01:10:31.087Z,94755.00
2023-06-30T01:11:31.115Z,94755.00
2023-06-30T01:12:31.151Z,94749.00
2023-06-30T01:13:31.206Z,94747.00
2023-06-30T01:14:31.245Z,94745.00
2023-06-30T01:15:31.340Z,94745.00
2023-06-30T01:16:31.389Z,94743.00
2023-06-30T01:17:31.396Z,94743.00
2023-06-30T01:18:31.402Z,94743.00
2023-06-30T01:19:31.464Z,94739.00
2023-06-30T01:20:31.497Z,94734.00
2023-06-30T01:21:31.565Z,94730.00
2023-06-30T01:22:31.601Z,94728.00
2023-06-30T01:23:31.645Z,94724.00
2023-06-30T01:24:31.724Z,94722.00
2023-06-30T01:25:31.804Z,94718.00
2023-06-30T01:26:31.826Z,94722.00
2023-06-30T01:27:31.827Z,94720.00
2023-06-30T01:28:31.915Z,94720.00
2023-06-30T01:29:31.953Z,94720.00
2023-06-30T01:30:32.005Z,94718.00
2023-06-30T01:31:32.047Z,94720.00
2023-06-30T01:32:32.069Z,94718.00
2023-06-30T01:33:32.090Z,94718.00
2023-06-30T01:34:32.181Z,94720.00
2023-06-30T01:35:32.196Z,94718.00
2023-06-30T01:36:32.234Z,94724.00
2023-06-30T01:37:32.313Z,94722.00
2023-06-30T01:38:32.349Z,94720.00
2023-06-30T01:39:32.375Z,94718.00
2023-06-30T01:40:32.471Z,94720.00
2023-06-30T01:41:32.460Z,94716.00
2023-06-30T01:42:32.574Z,94718.00
2023-06-30T01:43:32.557Z,94718.00
2023-06-30T01:44:32.586Z,94718.00
2023-06-30T01:45:32.613Z,94720.00
2023-06-30T01:46:32.689Z,94718.00
2023-06-30T01:47:32.750Z,94716.00
2023-06-30T01:48:32.781Z,94716.00
2023-06-30T01:49:32.753Z,94716.00
2023-06-30T01:50:32.800Z,94714.00
2023-06-30T01:51:32.845Z,94718.00
2023-06-30T01:52:32.928Z,94720.00
2023-06-30T01:53:32.925Z,94718.00
2023-06-30T01:54:32.965Z,94716.00
2023-06-30T01:55:33.076Z,94718.00
2023-06-30T01:56:33.075Z,94716.00
2023-06-30T01:57:33.090Z,94712.00
2023-06-30T01:58:33.178Z,94712.00
2023-06-30T01:59:33.201Z,94710.00
2023-06-30T02:00:33.221Z,94708.00
2023-06-30T02:01:33.373Z,94712.00
2023-06-30T02:02:33.564Z,94710.00
2023-06-30T02:03:33.481Z,94712.00
2023-06-30T02:04:33.393Z,94714.00
2023-06-30T02:05:33.447Z,94716.00
2023-06-30T02:06:33.535Z,94716.00
2023-06-30T02:07:33.654Z,94720.00
2023-06-30T02:08:33.591Z,94718.00
2023-06-30T02:09:43.238Z,94720.00
2023-06-30T02:10:34.656Z,94720.00
2023-06-30T02:11:33.644Z,94718.00
2023-06-30T02:12:33.609Z,94722.00
2023-06-30T02:13:33.625Z,94724.00
2023-06-30T02:14:33.645Z,94724.00
2023-06-30T02:15:33.627Z,94726.00
2023-06-30T02:16:33.621Z,94724.00
2023-06-30T02:17:33.687Z,94720.00
2023-06-30T02:18:33.591Z,94716.00
2023-06-30T02:19:33.617Z,94706.00
2023-06-30T02:20:33.803Z,94702.00
2023-06-30T02:21:33.738Z,94694.00
2023-06-30T02:22:33.766Z,94689.00
2023-06-30T02:23:33.856Z,94692.00
2023-06-30T02:24:33.903Z,94691.00
2023-06-30T02:25:33.988Z,94692.00
2023-06-30T02:26:33.971Z,94698.00
2023-06-30T02:27:34.015Z,94700.00
2023-06-30T02:28:34.100Z,94702.00
2023-06-30T02:29:34.095Z,94698.00
2023-06-30T02:30:34.169Z,94698.00
2023-06-30T02:31:34.317Z,94694.00
2023-06-30T02:32:34.347Z,94691.00
2023-06-30T02:33:34.385Z,94691.00
2023-06-30T02:34:34.408Z,94692.00
2023-06-30T02:35:34.562Z,94692.00
2023-06-30T02:36:34.521Z,94694.00
2023-06-30T02:37:34.608Z,94694.00
2023-06-30T02:38:34.638Z,94694.00
2023-06-30T02:39:34.718Z,94692.00
2023-06-30T02:40:34.808Z,94694.00
2023-06-30T02:41:34.830Z,94691.00
2023-06-30T02:42:34.906Z,94692.00
2023-06-30T02:43:34.977Z,94694.00
2023-06-30T02:44:35.031Z,94694.00
2023-06-30T02:45:35.202Z,94694.00
2023-06-30T02:46:35.200Z,94698.00
2023-06-30T02:47:35.231Z,94694.00
2023-06-30T02:48:35.298Z,94694.00
2023-06-30T02:49:35.293Z,94692.00
2023-06-30T02:50:35.404Z,94692.00
2023-06-30T02:51:35.476Z,94691.00
2023-06-30T02:52:35.512Z,94689.00
2023-06-30T02:53:35.557Z,94689.00
2023-06-30T02:54:35.625Z,94687.00
2023-06-30T02:55:38.777Z,94687.00
2023-06-30T02:56:35.685Z,94687.00
2023-06-30T02:57:35.663Z,94687.00
2023-06-30T02:58:35.703Z,94685.00
2023-06-30T02:59:35.669Z,94683.00
2023-06-30T03:00:35.701Z,94683.00
2023-06-30T03:01:35.785Z,94683.00
2023-06-30T03:02:35.761Z,94683.00
2023-06-30T03:03:35.702Z,94679.00
2023-06-30T03:04:35.620Z,94679.00
2023-06-30T03:05:35.626Z,94675.00
2023-06-30T03:06:35.580Z,94677.00
2023-06-30T03:07:35.859Z,94673.00
2023-06-30T03:08:35.592Z,94677.00
2023-06-30T03:09:35.608Z,94677.00
2023-06-30T03:10:35.620Z,94673.00
2023-06-30T03:11:35.578Z,94675.00
2023-06-30T03:12:35.564Z,94673.00
2023-06-30T03:13:35.573Z,94675.00
2023-06-30T03:14:35.565Z,94671.00
2023-06-30T03:15:35.600Z,94673.00
2023-06-30T03:16:35.577Z,94671.00
2023-06-30T03:17:35.521Z,94667.00
2023-06-30T03:18:35.530Z,94667.00
2023-06-30T03:19:35.534Z,94667.00
2023-06-30T03:20:35.539Z,94665.00
2023-06-30T03:21:35.554Z,94667.00
2023-06-30T03:22:35.520Z,94663.00
2023-06-30T03:23:35.528Z,94667.00
2023-06-30T03:24:35.529Z,94665.00
2023-06-30T03:25:35.510Z,94665.00
2023-06-30T03:26:35.494Z,94665.00
2023-06-30T03:27:35.465Z,94665.00
2023-06-30T03:28:35.470Z,94667.00
2023-06-30T03:29:35.458Z,94665.00
2023-06-30T03:30:35.555Z,94665.00
2023-06-30T03:31:35.547Z,94663.00
2023-06-30T03:32:35.542Z,94663.00
2023-06-30T03:33:35.577Z,94663.00
2023-06-30T03:34:35.616Z,94661.00
2023-06-30T03:35:35.649Z,94659.00
2023-06-30T03:36:35.651Z,94661.00
2023-06-30T03:37:35.705Z,94657.00
2023-06-30T03:38:35.832Z,94657.00
2023-06-30T03:39:35.819Z,94659.00
2023-06-30T03:40:35.937Z,94661.00
2023-06-30T03:41:35.897Z,94661.00
2023-06-30T03:42:35.934Z,94663.00
2023-06-30T03:43:36.016Z,94663.00
2023-06-30T03:44:36.015Z,94661.00
2023-06-30T03:45:36.065Z,94663.00
2023-06-30T03:46:36.124Z,94663.00
2023-06-30T03:47:36.175Z,94663.00
2023-06-30T03:48:36.154Z,94665.00
2023-06-30T03:49:36.189Z,94663.00
2023-06-30T03:50:36.191Z,94663.00
2023-06-30T03:51:36.251Z,94665.00
2023-06-30T03:52:36.244Z,94663.00
2023-06-30T03:53:36.317Z,94663.00
2023-06-30T03:54:36.354Z,94661.00
2023-06-30T03:55:36.377Z,94661.00
2023-06-30T03:56:36.416Z,94665.00
2023-06-30T03:57:36.449Z,94661.00
2023-06-30T03:58:36.465Z,94659.00
2023-06-30T03:59:36.514Z,94657.00
2023-06-30T04:00:36.529Z,94655.00
2023-06-30T04:01:36.540Z,94653.00
2023-06-30T04:02:36.611Z,94655.00
2023-06-30T04:03:36.711Z,94653.00
2023-06-30T04:04:36.794Z,94653.00
2023-06-30T04:05:36.752Z,94655.00
2023-06-30T04:06:36.792Z,94655.00
2023-06-30T04:07:37.030Z,94655.00
2023-06-30T04:08:36.945Z,94653.00
2023-06-30T04:09:37.004Z,94657.00
2023-06-30T04:10:37.060Z,94653.00
2023-06-30T04:11:37.099Z,94651.00
2023-06-30T04:12:37.175Z,94647.00
2023-06-30T04:13:37.286Z,94647.00
2023-06-30T04:14:37.321Z,94645.00
2023-06-30T04:15:37.368Z,94644.00
2023-06-30T04:16:37.430Z,94644.00
2023-06-30T04:17:37.495Z,94644.00
2023-06-30T04:18:37.567Z,94644.00
2023-06-30T04:19:37.598Z,94640.00
2023-06-30T04:20:37.690Z,94640.00
2023-06-30T04:21:37.704Z,94640.00
2023-06-30T04:22:37.796Z,94642.00
2023-06-30T04:23:37.824Z,94638.00
2023-06-30T04:24:37.934Z,94638.00
2023-06-30T04:25:37.981Z,94640.00
2023-06-30T04:26:38.103Z,94630.00
2023-06-30T04:27:38.121Z,94626.00
2023-06-30T04:28:38.218Z,94624.00
2023-06-30T04:29:38.209Z,94622.00
2023-06-30T04:30:38.682Z,94622.00
2023-06-30T04:31:38.399Z,94620.00
2023-06-30T04:32:38.463Z,94622.00
2023-06-30T04:33:38.445Z,94622.00
2023-06-30T04:34:38.513Z,94624.00
2023-06-30T04:35:38.609Z,94624.00
2023-06-30T04:36:38.652Z,94624.00
2023-06-30T04:37:38.722Z,94622.00
2023-06-30T04:38:38.861Z,94622.00
2023-06-30T04:39:38.834Z,94620.00
2023-06-30T04:40:38.871Z,94620.00
2023-06-30T04:41:38.975Z,94620.00
2023-06-30T04:42:39.069Z,94620.00
2023-06-30T04:43:39.063Z,94620.00
2023-06-30T04:44:39.164Z,94620.00
2023-06-30T04:45:39.174Z,94620.00
2023-06-30T04:46:39.326Z,94618.00
2023-06-30T04:47:39.379Z,94612.00
2023-06-30T04:48:39.386Z,94610.00
2023-06-30T04:49:39.402Z,94610.00
2023-06-30T04:50:39.488Z,94608.00
2023-06-30T04:51:39.553Z,94608.00
2023-06-30T04:52:39.639Z,94606.00
2023-06-30T04:53:39.679Z,94602.00
2023-06-30T04:54:39.721Z,94604.00
2023-06-30T04:55:39.803Z,94604.00
2023-06-30T04:56:39.844Z,94606.00
2023-06-30T04:57:39.902Z,94602.00
2023-06-30T04:58:39.963Z,94602.00
2023-06-30T04:59:40.067Z,94608.00
2023-06-30T05:00:40.126Z,94610.00
2023-06-30T05:01:40.177Z,94612.00
2023-06-30T05:02:40.214Z,94616.00
2023-06-30T05:03:40.260Z,94614.00
2023-06-30T05:04:40.313Z,94618.00
2023-06-30T05:05:40.413Z,94616.00
2023-06-30T05:06:40.390Z,94616.00
2023-06-30T05:07:40.525Z,94614.00
2023-06-30T05:08:40.459Z,94614.00
2023-06-30T05:09:40.547Z,94612.00
2023-06-30T05:10:40.583Z,94610.00
2023-06-30T05:11:40.653Z,94610.00
2023-06-30T05:12:40.601Z,94612.00
2023-06-30T05:13:40.616Z,94610.00
2023-06-30T05:14:40.624Z,94610.00
2023-06-30T05:15:40.718Z,94608.00
2023-06-30T05:16:40.722Z,94608.00
2023-06-30T05:17:40.812Z,94608.00
2023-06-30T05:18:40.754Z,94604.00
2023-06-30T05:19:40.774Z,94604.00
2023-06-30T05:20:40.829Z,94602.00
2023-06-30T05:21:40.868Z,94602.00
2023-06-30T05:22:40.898Z,94604.00
2023-06-30T05:23:40.952Z,94604.00
2023-06-30T05:24:40.965Z,94608.00
2023-06-30T05:25:41.002Z,94604.00
2023-06-30T05:26:41.112Z,94612.00
2023-06-30T05:27:41.056Z,94610.00
2023-06-30T05:28:43.166Z,94610.00
2023-06-30T05:29:42.129Z,94606.00
2023-06-30T05:30:41.122Z,94608.00
2023-06-30T05:31:41.152Z,94608.00
2023-06-30T05:32:41.188Z,94606.00
2023-06-30T05:33:41.095Z,94606.00
2023-06-30T05:34:41.081Z,94608.00
2023-06-30T05:35:41.053Z,94606.00
2023-06-30T05:36:41.080Z,94608.00
2023-06-30T05:37:41.117Z,94608.00
2023-06-30T05:38:41.163Z,94608.00
2023-06-30T05:39:41.199Z,94614.00
2023-06-30T05:40:41.284Z,94612.00
2023-06-30T05:41:41.321Z,94610.00
2023-06-30T05:42:41.349Z,94610.00
2023-06-30T05:43:41.427Z,94610.00
2023-06-30T05:44:41.507Z,94606.00
2023-06-30T05:45:41.573Z,94610.00
2023-06-30T05:46:41.612Z,94612.00
2023-06-30T05:47:41.692Z,94610.00
2023-06-30T05:48:41.645Z,94612.00
2023-06-30T05:49:41.713Z,94610.00
2023-06-30T05:50:42.505Z,94610.00
2023-06-30T05:51:41.873Z,94606.00
2023-06-30T05:52:41.835Z,94610.00
2023-06-30T05:53:41.884Z,94608.00
2023-06-30T05:54:41.907Z,94612.00
2023-06-30T05:55:42.028Z,94612.00
2023-06-30T05:56:41.920Z,94614.00
2023-06-30T05:57:41.950Z,94612.00
2023-06-30T05:58:41.969Z,94618.00
2023-06-30T05:59:41.947Z,94618.00
2023-06-30T06:00:41.928Z,94616.00
2023-06-30T06:01:41.977Z,94618.00
2023-06-30T06:02:42.058Z,94620.00
2023-06-30T06:03:42.153Z,94622.00
2023-06-30T06:04:42.135Z,94622.00
2023-06-30T06:05:42.061Z,94620.00
2023-06-30T06:06:42.022Z,94622.00
2023-06-30T06:07:42.082Z,94624.00
2023-06-30T06:08:42.053Z,94616.00
2023-06-30T06:09:42.053Z,94620.00
2023-06-30T06:10:42.149Z,94620.00
2023-06-30T06:11:42.156Z,94624.00
2023-06-30T06:12:42.192Z,94626.00
2023-06-30T06:13:42.281Z,94624.00
2023-06-30T06:14:42.302Z,94624.00
2023-06-30T06:15:42.484Z,94624.00
2023-06-30T06:16:42.365Z,94620.00
2023-06-30T06:17:42.405Z,94626.00
2023-06-30T06:18:42.364Z,94626.00
2023-06-30T06:19:42.370Z,94624.00
2023-06-30T06:20:42.411Z,94628.00
2023-06-30T06:21:42.422Z,94638.00
2023-06-30T06:22:42.439Z,94638.00
2023-06-30T06:23:42.492Z,94628.00
2023-06-30T06:24:42.502Z,94628.00
2023-06-30T06:25:43.257Z,94630.00
2023-06-30T06:26:42.491Z,94630.00
2023-06-30T06:27:42.546Z,94630.00
2023-06-30T06:28:42.515Z,94630.00
2023-06-30T06:29:42.486Z,94638.00
2023-06-30T06:30:42.559Z,94630.00
2023-06-30T06:31:42.509Z,94630.00
2023-06-30T06:32:42.545Z,94630.00
2023-06-30T06:33:42.513Z,94630.00
2023-06-30T06:34:42.492Z,94628.00
2023-06-30T06:35:42.817Z,94630.00
2023-06-30T06:36:42.451Z,94638.00
2023-06-30T06:37:42.484Z,94626.00
2023-06-30T06:38:42.449Z,94628.00
2023-06-30T06:39:42.438Z,94630.00
2023-06-30T06:40:42.457Z,94630.00
2023-06-30T06:41:42.418Z,94626.00
2023-06-30T06:42:42.445Z,94626.00
2023-06-30T06:43:42.448Z,94622.00
2023-06-30T06:44:42.401Z,94624.00
2023-06-30T06:45:42.688Z,94620.00
2023-06-30T06:46:42.426Z,94620.00
2023-06-30T06:47:42.444Z,94620.00
2023-06-30T06:48:42.498Z,94622.00
2023-06-30T06:49:42.751Z,94620.00
2023-06-30T06:50:42.380Z,94620.00
2023-06-30T06:51:42.369Z,94626.00
2023-06-30T06:52:42.373Z,94626.00
2023-06-30T06:53:42.358Z,94626.00
2023-06-30T06:54:42.315Z,94628.00
2023-06-30T06:55:42.537Z,94630.00
2023-06-30T06:56:42.359Z,94630.00
2023-06-30T06:57:42.311Z,94628.00
2023-06-30T06:58:42.316Z,94630.00
2023-06-30T06:59:42.299Z,94630.00
2023-06-30T07:00:42.312Z,94626.00
2023-06-30T07:01:42.335Z,94620.00
2023-06-30T07:02:42.338Z,94624.00
2023-06-30T07:03:42.387Z,94624.00
2023-06-30T07:04:42.259Z,94622.00
2023-06-30T07:05:42.520Z,94618.00
2023-06-30T07:06:42.219Z,94618.00
2023-06-30T07:07:42.317Z,94618.00
2023-06-30T07:08:42.240Z,94618.00
2023-06-30T07:09:42.236Z,94618.00
2023-06-30T07:10:42.232Z,94616.00
2023-06-30T07:11:42.212Z,94618.00
2023-06-30T07:12:42.187Z,94618.00
2023-06-30T07:13:42.207Z,94616.00
2023-06-30T07:14:43.095Z,94622.00
2023-06-30T07:15:42.570Z,94622.00
2023-06-30T07:16:42.469Z,94622.00
2023-06-30T07:17:42.485Z,94620.00
2023-06-30T07:18:42.589Z,94622.00
2023-06-30T07:19:42.517Z,94620.00
2023-06-30T07:20:42.574Z,94622.00
2023-06-30T07:21:42.569Z,94622.00
2023-06-30T07:22:42.575Z,94620.00
2023-06-30T07:23:42.626Z,94618.00
2023-06-30T07:24:44.081Z,94620.00
2023-06-30T07:25:42.855Z,94618.00
2023-06-30T07:26:42.740Z,94618.00
2023-06-30T07:27:42.701Z,94622.00
2023-06-30T07:28:42.771Z,94620.00
2023-06-30T07:29:42.777Z,94624.00
2023-06-30T07:30:42.746Z,94622.00
2023-06-30T07:31:42.832Z,94622.00
2023-06-30T07:32:42.854Z,94620.00
2023-06-30T07:33:42.821Z,94622.00
2023-06-30T07:34:42.864Z,94628.00
2023-06-30T07:35:42.994Z,94626.00
2023-06-30T07:36:42.856Z,94626.00
2023-06-30T07:37:42.896Z,94626.00
2023-06-30T07:38:43.696Z,94626.00
2023-06-30T07:39:42.919Z,94630.00
2023-06-30T07:41:42.977Z,94630.00
2023-06-30T07:42:42.885Z,94638.00
2023-06-30T07:43:42.890Z,94630.00
2023-06-30T07:44:42.885Z,94630.00
2023-06-30T07:45:43.123Z,94638.00
2023-06-30T07:46:42.894Z,94630.00
2023-06-30T07:47:42.921Z,94630.00
2023-06-30T07:48:42.946Z,94630.00
2023-06-30T07:49:42.847Z,94626.00
2023-06-30T07:50:54.683Z,94628.00
2023-06-30T07:51:43.813Z,94626.00
2023-06-30T07:52:43.990Z,94638.00
2023-06-30T07:53:43.733Z,94630.00
2023-06-30T07:54:42.840Z,94628.00
2023-06-30T07:55:43.151Z,94624.00
2023-06-30T07:56:42.792Z,94628.00
2023-06-30T07:57:42.868Z,94628.00
2023-06-30T07:58:42.790Z,94628.00
2023-06-30T07:59:42.799Z,94622.00
2023-06-30T08:00:42.801Z,94620.00
2023-06-30T08:01:42.789Z,94618.00
2023-06-30T08:02:42.833Z,94620.00
2023-06-30T08:03:42.955Z,94618.00
2023-06-30T08:04:42.952Z,94616.00
2023-06-30T08:05:43.235Z,94618.00
2023-06-30T08:06:42.733Z,94616.00
2023-06-30T08:07:48.982Z,94614.00
2023-06-30T08:08:43.714Z,94614.00
2023-06-30T08:09:42.697Z,94620.00
2023-06-30T08:10:44.709Z,94616.00
2023-06-30T08:11:42.718Z,94618.00
2023-06-30T08:12:42.722Z,94618.00
2023-06-30T08:13:42.697Z,94620.00
2023-06-30T08:14:42.736Z,94620.00
2023-06-30T08:15:44.677Z,94620.00
2023-06-30T08:16:42.775Z,94620.00
2023-06-30T08:17:54.506Z,94622.00
2023-06-30T08:18:51.327Z,94620.00
2023-06-30T08:19:47.695Z,94622.00
2023-06-30T08:20:43.749Z,94618.00
2023-06-30T08:21:42.762Z,94620.00
2023-06-30T08:22:43.664Z,94618.00
2023-06-30T08:23:42.814Z,94620.00
2023-06-30T08:24:42.742Z,94614.00
2023-06-30T08:25:43.033Z,94614.00
2023-06-30T08:26:42.739Z,94614.00
2023-06-30T08:27:42.773Z,94614.00
2023-06-30T08:28:42.684Z,94608.00
2023-06-30T08:29:42.739Z,94608.00
2023-06-30T08:30:42.836Z,94608.00
2023-06-30T08:31:42.826Z,94608.00
2023-06-30T08:32:42.883Z,94606.00
2023-06-30T08:33:43.009Z,94610.00
2023-06-30T08:34:42.944Z,94610.00
2023-06-30T08:35:43.131Z,94610.00
2023-06-30T08:36:43.005Z,94608.00
2023-06-30T08:37:43.014Z,94608.00
2023-06-30T08:38:43.078Z,94608.00
2023-06-30T08:39:43.085Z,94610.00
2023-06-30T08:40:43.116Z,94610.00
2023-06-30T08:41:43.139Z,94610.00
2023-06-30T08:42:43.203Z,94604.00
2023-06-30T08:43:43.165Z,94606.00
2023-06-30T08:44:43.169Z,94606.00
2023-06-30T08:45:43.526Z,94602.00
2023-06-30T08:46:43.278Z,94600.00
2023-06-30T08:47:43.611Z,94600.00
2023-06-30T08:48:43.382Z,94598.00
2023-06-30T08:49:43.451Z,94600.00
2023-06-30T08:50:43.453Z,94600.00
2023-06-30T08:51:43.472Z,94604.00
2023-06-30T08:52:43.491Z,94602.00
2023-06-30T08:53:43.520Z,94604.00
2023-06-30T08:54:43.557Z,94600.00
2023-06-30T08:55:43.782Z,94602.00
2023-06-30T08:56:43.597Z,94600.00
2023-06-30T08:57:43.613Z,94602.00
2023-06-30T08:58:43.614Z,94604.00
2023-06-30T08:59:44.612Z,94608.00
2023-06-30T09:00:43.640Z,94610.00
2023-06-30T09:01:45.554Z,94610.00
2023-06-30T09:02:43.604Z,94614.00
2023-06-30T09:03:43.688Z,94608.00
2023-06-30T09:04:43.581Z,94614.00
2023-06-30T09:05:43.786Z,94614.00
2023-06-30T09:06:43.535Z,94616.00
2023-06-30T09:07:43.669Z,94614.00
2023-06-30T09:08:43.536Z,94610.00
2023-06-30T09:09:43.544Z,94610.00
2023-06-30T09:10:43.549Z,94612.00
2023-06-30T09:11:43.514Z,94612.00
2023-06-30T09:12:43.517Z,94610.00
2023-06-30T09:13:43.543Z,94612.00
2023-06-30T09:14:43.476Z,94614.00
2023-06-30T09:15:43.850Z,94616.00
2023-06-30T09:16:43.523Z,94614.00
2023-06-30T09:17:43.508Z,94618.00
2023-06-30T09:18:43.477Z,94620.00
2023-06-30T09:19:43.472Z,94618.00
2023-06-30T09:20:43.458Z,94620.00
2023-06-30T09:21:43.467Z,94620.00
2023-06-30T09:22:55.100Z,94620.00
2023-06-30T09:23:44.459Z,94612.00
2023-06-30T09:24:43.433Z,94616.00
2023-06-30T09:25:43.705Z,94614.00
2023-06-30T09:26:43.394Z,94606.00
2023-06-30T09:27:43.399Z,94602.00
2023-06-30T09:28:44.409Z,94602.00
2023-06-30T09:29:43.396Z,94600.00
2023-06-30T09:30:43.428Z,94598.00
2023-06-30T09:31:43.413Z,94598.00
2023-06-30T09:32:43.457Z,94600.00
2023-06-30T09:33:43.407Z,94600.00
2023-06-30T09:34:43.348Z,94598.00
2023-06-30T09:35:43.632Z,94600.00
2023-06-30T09:36:43.377Z,94602.00
2023-06-30T09:37:43.391Z,94600.00
2023-06-30T09:38:43.350Z,94600.00
2023-06-30T09:39:43.307Z,94598.00
2023-06-30T09:40:43.757Z,94598.00
2023-06-30T09:41:43.302Z,94594.00
2023-06-30T09:42:44.212Z,94592.00
2023-06-30T09:43:43.314Z,94589.00
2023-06-30T09:44:43.316Z,94587.00
2023-06-30T09:45:43.822Z,94585.00
2023-06-30T09:46:43.376Z,94585.00
2023-06-30T09:47:43.293Z,94581.00
2023-06-30T09:48:43.304Z,94575.00
2023-06-30T09:49:43.309Z,94579.00
2023-06-30T09:50:43.316Z,94581.00
2023-06-30T09:51:43.321Z,94577.00
2023-06-30T09:52:43.322Z,94573.00
2023-06-30T09:53:43.353Z,94573.00
2023-06-30T09:54:45.215Z,94577.00
2023-06-30T09:55:43.522Z,94575.00
2023-06-30T09:56:43.300Z,94577.00
2023-06-30T09:57:43.311Z,94577.00
2023-06-30T09:58:43.316Z,94579.00
2023-06-30T09:59:43.330Z,94581.00
2023-06-30T10:00:43.783Z,94581.00
2023-06-30T10:01:43.383Z,94583.00
2023-06-30T10:02:43.434Z,94577.00
2023-06-30T10:03:43.404Z,94581.00
2023-06-30T10:04:43.363Z,94583.00
2023-06-30T10:05:44.074Z,94581.00
2023-06-30T10:06:43.412Z,94581.00
2023-06-30T10:07:43.469Z,94583.00
2023-06-30T10:08:43.390Z,94585.00
2023-06-30T10:09:43.392Z,94587.00
2023-06-30T10:10:43.793Z,94587.00
2023-06-30T10:11:43.429Z,94589.00
2023-06-30T10:12:44.329Z,94583.00
2023-06-30T10:13:43.414Z,94587.00
2023-06-30T10:14:43.436Z,94585.00
2023-06-30T10:15:43.982Z,94585.00
2023-06-30T10:16:43.494Z,94585.00
2023-06-30T10:17:43.634Z,94583.00
2023-06-30T10:18:43.524Z,94587.00
2023-06-30T10:19:43.525Z,94585.00
2023-06-30T10:20:49.168Z,94587.00
2023-06-30T10:21:44.544Z,94583.00
2023-06-30T10:22:43.534Z,94587.00
2023-06-30T10:23:43.496Z,94583.00
2023-06-30T10:24:43.453Z,94585.00
2023-06-30T10:25:43.628Z,94591.00
2023-06-30T10:26:43.519Z,94589.00
2023-06-30T10:27:43.470Z,94592.00
2023-06-30T10:28:43.460Z,94594.00
2023-06-30T10:29:43.486Z,94594.00
2023-06-30T10:30:43.750Z,94591.00
2023-06-30T10:31:43.515Z,94591.00
2023-06-30T10:32:43.513Z,94589.00
2023-06-30T10:33:43.471Z,94587.00
2023-06-30T10:34:43.425Z,94587.00
2023-06-30T10:35:44.168Z,94589.00
2023-06-30T10:36:43.418Z,94587.00
2023-06-30T10:37:43.420Z,94587.00
2023-06-30T10:38:43.434Z,94587.00
2023-06-30T10:39:43.457Z,94585.00
2023-06-30T10:40:43.815Z,94585.00
2023-06-30T10:41:43.570Z,94587.00
2023-06-30T10:42:43.620Z,94585.00
2023-06-30T10:43:43.787Z,94585.00
2023-06-30T10:44:43.745Z,94583.00
2023-06-30T10:45:44.012Z,94583.00
2023-06-30T10:46:43.959Z,94581.00
2023-06-30T10:47:43.873Z,94577.00
2023-06-30T10:48:43.855Z,94579.00
2023-06-30T10:49:43.885Z,94579.00
2023-06-30T10:50:43.908Z,94577.00
2023-06-30T10:51:43.904Z,94577.00
2023-06-30T10:52:43.925Z,94581.00
2023-06-30T10:53:43.919Z,94577.00
2023-06-30T10:54:43.947Z,94577.00
2023-06-30T10:55:43.951Z,94573.00
2023-06-30T10:56:43.907Z,94571.00
2023-06-30T10:57:43.919Z,94573.00
2023-06-30T10:58:43.999Z,94569.00
2023-06-30T10:59:44.005Z,94569.00
2023-06-30T11:00:43.999Z,94565.00
2023-06-30T11:01:44.038Z,94565.00
2023-06-30T11:02:44.122Z,94563.00
2023-06-30T11:03:44.164Z,94561.00
2023-06-30T11:04:44.307Z,94559.00
2023-06-30T11:05:44.553Z,94557.00
2023-06-30T11:06:44.290Z,94557.00
2023-06-30T11:07:44.287Z,94555.00
2023-06-30T11:08:44.368Z,94553.00
2023-06-30T11:09:44.405Z,94555.00
2023-06-30T11:10:44.540Z,94555.00
2023-06-30T11:11:44.552Z,94557.00
2023-06-30T11:12:44.594Z,94553.00
2023-06-30T11:13:44.669Z,94555.00
2023-06-30T11:14:44.777Z,94553.00
2023-06-30T11:15:45.395Z,94549.00
2023-06-30T11:16:44.868Z,94549.00
2023-06-30T11:17:44.953Z,94547.00
2023-06-30T11:18:45.060Z,94547.00
2023-06-30T11:19:45.008Z,94544.00
2023-06-30T11:20:45.052Z,94547.00
2023-06-30T11:21:45.115Z,94545.00
2023-06-30T11:22:45.176Z,94544.00
2023-06-30T11:23:45.189Z,94542.00
2023-06-30T11:24:45.233Z,94545.00
2023-06-30T11:25:45.306Z,94542.00
2023-06-30T11:26:45.419Z,94540.00
2023-06-30T11:27:45.382Z,94538.00
2023-06-30T11:28:45.425Z,94540.00
2023-06-30T11:29:45.510Z,94538.00
2023-06-30T11:30:45.560Z,94536.00
2023-06-30T11:31:45.568Z,94536.00
2023-06-30T11:32:45.650Z,94536.00
2023-06-30T11:33:45.664Z,94536.00
2023-06-30T11:34:45.715Z,94536.00
2023-06-30T11:35:45.969Z,94530.00
2023-06-30T11:36:45.747Z,94526.00
2023-06-30T11:37:45.802Z,94528.00
2023-06-30T11:38:45.839Z,94526.00
2023-06-30T11:39:45.885Z,94522.00
2023-06-30T11:40:45.918Z,94520.00
2023-06-30T11:41:45.992Z,94518.00
2023-06-30T11:42:46.032Z,94510.00
2023-06-30T11:43:46.038Z,94514.00
2023-06-30T11:44:46.075Z,94512.00
2023-06-30T11:45:46.292Z,94514.00